createdAt,value
2023-04-03T00:00:34.250Z,99991.59
2023-04-03T00:03:01.297Z,99991.56
2023-04-03T00:05:28.020Z,99988.06
2023-04-03T00:07:54.656Z,99993.41
2023-04-03T00:10:21.352Z,99991.47
2023-04-03T00:12:47.969Z,99986.44
2023-04-03T00:15:15.217Z,99994.25
2023-04-03T00:17:42.124Z,99995.13
2023-04-03T00:20:09.470Z,99995.88
2023-04-03T00:22:36.223Z,99996.75
2023-04-03T00:25:03.207Z,99993.22
2023-04-03T00:27:29.909Z,100000.00
2023-04-03T00:29:56.534Z,99996.63
2023-04-03T00:32:23.208Z,99991.41
2023-04-03T00:34:49.826Z,99993.03
2023-04-03T00:37:16.480Z,99989.63
2023-04-03T00:39:43.108Z,99989.63
2023-04-03T00:42:09.800Z,99994.63
2023-04-03T00:44:36.375Z,99994.25
2023-04-03T00:47:06.643Z,99997.63
2023-04-03T00:49:33.465Z,100002.28
2023-04-03T00:52:00.896Z,100009.09
2023-04-03T00:54:27.780Z,100007.31
2023-04-03T00:56:57.147Z,100002.31
2023-04-03T00:59:32.468Z,100009.31
2023-04-03T01:01:59.655Z,100006.88
2023-04-03T01:04:41.265Z,100017.16
2023-04-03T01:07:16.922Z,100016.16
2023-04-03T01:09:44.192Z,100016.22
2023-04-03T01:12:20.845Z,100016.13
2023-04-03T01:14:50.491Z,100021.50
2023-04-03T01:17:34.658Z,100016.31
2023-04-03T01:20:25.415Z,100023.16
2023-04-03T01:23:12.642Z,100017.94
2023-04-03T01:25:49.743Z,100011.94
2023-04-03T01:28:39.301Z,100018.91
2023-04-03T01:31:25.729Z,100019.72
2023-04-03T01:33:52.902Z,100017.91
2023-04-03T01:36:25.911Z,100012.81
2023-04-03T01:38:54.315Z,100019.78
2023-04-03T01:41:21.160Z,100016.31
2023-04-03T01:43:49.117Z,100027.59
2023-04-03T01:46:17.378Z,100027.53
2023-04-03T01:48:44.159Z,100027.63
2023-04-03T01:51:10.918Z,100028.47
2023-04-03T01:53:37.632Z,100029.31
2023-04-03T01:56:04.781Z,100027.44
2023-04-03T01:58:31.528Z,100028.50
2023-04-03T02:00:58.239Z,100024.13
2023-04-03T02:03:24.916Z,100029.34
2023-04-03T02:05:51.664Z,100028.59
2023-04-03T02:08:18.480Z,100038.03
2023-04-03T02:10:47.774Z,100037.31
2023-04-03T02:13:14.369Z,100038.03
2023-04-03T02:15:41.650Z,100042.56
2023-04-03T02:18:09.232Z,100038.16
2023-04-03T02:20:36.092Z,100039.88
2023-04-03T02:23:03.734Z,100038.97
2023-04-03T02:25:32.534Z,100038.16
2023-04-03T02:27:59.476Z,100035.44
2023-04-03T02:30:26.700Z,100038.19
2023-04-03T02:32:53.593Z,100035.56
2023-04-03T02:35:20.459Z,100038.19
2023-04-03T02:37:47.159Z,100030.38
2023-04-03T02:40:13.815Z,100040.06
2023-04-03T02:42:40.659Z,100032.28
2023-04-03T02:45:07.847Z,100034.84
2023-04-03T02:47:34.470Z,100041.84
2023-04-03T02:50:01.106Z,100037.34
2023-04-03T02:52:27.771Z,100044.22
2023-04-03T02:54:54.462Z,100046.84
2023-04-03T02:57:21.281Z,100042.53
2023-04-03T02:59:48.093Z,100040.06
2023-04-03T03:02:14.734Z,100042.69
2023-04-03T03:04:41.374Z,100043.47
2023-04-03T03:07:08.044Z,100044.31
2023-04-03T03:09:34.663Z,100043.38
2023-04-03T03:12:01.407Z,100047.66
2023-04-03T03:14:28.081Z,100048.47
2023-04-03T03:16:54.830Z,100044.47
2023-04-03T03:19:21.423Z,100041.03
2023-04-03T03:21:48.128Z,100048.03
2023-04-03T03:24:14.750Z,100042.75
2023-04-03T03:26:41.486Z,100047.03
2023-04-03T03:29:08.208Z,100047.03
2023-04-03T03:31:34.879Z,100045.38
2023-04-03T03:34:01.519Z,100041.09
2023-04-03T03:36:28.137Z,100040.19
2023-04-03T03:38:54.779Z,100039.31
2023-04-03T03:41:21.530Z,100046.31
2023-04-03T03:43:48.186Z,100042.78
2023-04-03T03:46:14.874Z,100051.44
2023-04-03T03:48:41.530Z,100053.19
2023-04-03T03:51:08.225Z,100042.78
2023-04-03T03:53:34.860Z,100047.09
2023-04-03T03:56:01.565Z,100045.28
2023-04-03T03:58:28.239Z,100049.66
2023-04-03T04:00:54.850Z,100052.34
2023-04-03T04:03:21.665Z,100047.09
2023-04-03T04:05:48.416Z,100061.88
2023-04-03T04:08:15.018Z,100051.56
2023-04-03T04:10:41.781Z,100049.75
2023-04-03T04:13:08.431Z,100048.00
2023-04-03T04:15:35.608Z,100048.91
2023-04-03T04:18:02.639Z,100053.25
2023-04-03T04:20:29.263Z,100053.28
2023-04-03T04:22:55.871Z,100052.44
2023-04-03T04:25:22.528Z,100053.28
2023-04-03T04:27:49.199Z,100055.03
2023-04-03T04:30:16.205Z,100053.28
2023-04-03T04:32:42.904Z,100056.75
2023-04-03T04:35:09.913Z,100059.34
2023-04-03T04:37:36.585Z,100060.22
2023-04-03T04:40:03.245Z,100066.31
2023-04-03T04:42:29.953Z,100068.03
2023-04-03T04:44:56.547Z,100062.84
2023-04-03T04:47:23.290Z,100062.84
2023-04-03T04:49:49.908Z,100074.97
2023-04-03T04:52:16.904Z,100074.97
2023-04-03T04:54:43.659Z,100077.59
2023-04-03T04:57:10.509Z,100076.69
2023-04-03T04:59:37.170Z,100075.81
2023-04-03T05:02:04.133Z,100081.91
2023-04-03T05:04:31.011Z,100088.84
2023-04-03T05:06:57.679Z,100094.84
2023-04-03T05:09:24.285Z,100092.31
2023-04-03T05:11:51.012Z,100087.09
2023-04-03T05:14:17.839Z,100075.84
2023-04-03T05:16:44.462Z,100084.53
2023-04-03T05:19:11.078Z,100094.91
2023-04-03T05:21:37.895Z,100094.91
2023-04-03T05:24:05.111Z,100092.31
2023-04-03T05:26:32.803Z,100091.41
2023-04-03T05:28:59.422Z,100099.25
2023-04-03T05:31:26.100Z,100098.38
2023-04-03T05:33:53.079Z,100091.44
2023-04-03T05:36:20.356Z,100091.44
2023-04-03T05:38:47.427Z,100094.91
2023-04-03T05:41:15.096Z,100094.06
2023-04-03T05:43:42.115Z,100094.94
2023-04-03T05:46:13.686Z,100090.63
2023-04-03T05:48:40.358Z,100091.47
2023-04-03T05:51:08.747Z,100088.84
2023-04-03T05:53:37.335Z,100094.03
2023-04-03T05:56:04.592Z,100095.81
2023-04-03T05:58:31.757Z,100105.34
2023-04-03T06:00:58.440Z,100108.75
2023-04-03T06:03:25.783Z,100116.63
2023-04-03T06:05:52.858Z,100114.00
2023-04-03T06:08:19.442Z,100114.00
2023-04-03T06:10:46.077Z,100120.00
2023-04-03T06:13:12.729Z,100120.94
2023-04-03T06:15:39.428Z,100123.53
2023-04-03T06:18:06.202Z,100120.06
2023-04-03T06:20:32.857Z,100120.94
2023-04-03T06:22:59.851Z,100119.19
2023-04-03T06:25:26.568Z,100122.63
2023-04-03T06:27:53.227Z,100118.31
2023-04-03T06:30:19.894Z,100123.47
2023-04-03T06:32:46.555Z,100128.69
2023-04-03T06:35:13.620Z,100121.78
2023-04-03T06:37:40.239Z,100122.63
2023-04-03T06:40:07.618Z,100124.28
2023-04-03T06:42:34.230Z,100128.50
2023-04-03T06:45:00.832Z,100133.72
2023-04-03T06:47:27.645Z,100132.75
2023-04-03T06:49:54.268Z,100135.41
2023-04-03T06:52:20.922Z,100141.47
2023-04-03T06:54:47.686Z,100136.38
2023-04-03T06:57:14.359Z,100130.25
2023-04-03T06:59:41.054Z,100140.72
2023-04-03T07:02:07.818Z,100141.53
2023-04-03T07:04:34.568Z,100145.81
2023-04-03T07:07:01.298Z,100151.03
2023-04-03T07:09:27.893Z,100144.81
2023-04-03T07:11:54.502Z,100138.59
2023-04-03T07:14:21.218Z,100158.66
2023-04-03T07:16:48.189Z,100150.06
2023-04-03T07:19:14.832Z,100155.28
2023-04-03T07:21:41.657Z,100150.00
2023-04-03T07:24:11.328Z,100156.03
2023-04-03T07:26:41.570Z,100170.72
2023-04-03T07:29:08.282Z,100155.91
2023-04-03T07:31:34.970Z,100162.72
2023-04-03T07:34:01.637Z,100162.81
2023-04-03T07:36:28.247Z,100159.28
2023-04-03T07:38:54.931Z,100167.09
2023-04-03T07:41:21.539Z,100164.38
2023-04-03T07:43:48.128Z,100175.56
2023-04-03T07:46:14.862Z,100171.31
2023-04-03T07:48:41.498Z,100170.34
2023-04-03T07:51:08.156Z,100173.00
2023-04-03T07:53:35.113Z,100178.16
2023-04-03T07:56:01.770Z,100175.34
2023-04-03T07:58:28.408Z,100176.09
2023-04-03T08:00:55.036Z,100178.69
2023-04-03T08:03:22.019Z,100182.91
2023-04-03T08:05:50.876Z,100183.56
2023-04-03T08:08:21.626Z,100190.69
2023-04-03T08:10:55.338Z,100189.13
2023-04-03T08:13:22.998Z,100190.75
2023-04-03T08:15:50.157Z,100193.50
2023-04-03T08:18:19.663Z,100190.03
2023-04-03T08:20:46.275Z,100195.25
2023-04-03T08:23:12.844Z,100190.66
2023-04-03T08:25:41.195Z,100198.97
2023-04-03T08:28:08.955Z,100200.59
2023-04-03T08:30:35.865Z,100199.72
2023-04-03T08:33:04.222Z,100197.75
2023-04-03T08:35:30.982Z,100196.41
2023-04-03T08:37:57.781Z,100204.66
2023-04-03T08:40:25.306Z,100197.47
2023-04-03T08:42:57.851Z,100207.94
2023-04-03T08:45:47.224Z,100203.78
2023-04-03T08:48:18.231Z,100201.69
2023-04-03T08:50:49.021Z,100201.13
2023-04-03T08:53:22.881Z,100200.66
2023-04-03T08:55:54.278Z,100203.56
2023-04-03T08:58:29.495Z,100208.28
2023-04-03T09:01:05.712Z,100210.78
2023-04-03T09:03:37.778Z,100200.63
2023-04-03T09:06:26.879Z,100214.31
2023-04-03T09:08:56.207Z,100205.81
2023-04-03T09:11:48.431Z,100199.47
2023-04-03T09:14:24.510Z,100206.50
2023-04-03T09:16:57.611Z,100208.72
2023-04-03T09:19:33.387Z,100201.97
2023-04-03T09:22:22.545Z,100210.25
2023-04-03T09:25:20.222Z,100209.56
2023-04-03T09:27:47.046Z,100209.78
2023-04-03T09:30:16.767Z,100208.84
2023-04-03T09:32:48.753Z,100213.47
2023-04-03T09:35:44.148Z,100208.75
2023-04-03T09:38:13.675Z,100212.81
2023-04-03T09:40:44.780Z,100216.41
2023-04-03T09:43:23.592Z,100218.59
2023-04-03T09:45:51.449Z,100210.44
2023-04-03T09:48:24.491Z,100203.56
2023-04-03T09:50:51.284Z,100204.06
2023-04-03T09:53:29.361Z,100205.72
2023-04-03T09:55:56.317Z,100201.19
2023-04-03T09:58:46.702Z,100203.69
2023-04-03T10:01:29.211Z,100212.34
2023-04-03T10:04:15.411Z,100205.28
2023-04-03T10:06:47.469Z,100203.63
2023-04-03T10:09:19.621Z,100200.66
2023-04-03T10:12:08.584Z,100206.84
2023-04-03T10:14:37.375Z,100202.53
2023-04-03T10:17:17.094Z,100209.75
2023-04-03T10:20:19.173Z,100206.66
2023-04-03T10:22:57.597Z,100214.06
2023-04-03T10:25:42.603Z,100201.53
2023-04-03T10:28:33.891Z,100199.88
2023-04-03T10:31:12.593Z,100201.28
2023-04-03T10:33:57.294Z,100189.66
2023-04-03T10:37:02.650Z,100189.97
2023-04-03T10:39:55.363Z,100193.19
2023-04-03T10:43:09.555Z,100192.84
2023-04-03T10:45:50.984Z,100189.91
2023-04-03T10:48:40.426Z,100188.66
2023-04-03T10:51:14.040Z,100189.78
2023-04-03T10:53:55.831Z,100186.34
2023-04-03T10:56:32.121Z,100180.59
2023-04-03T10:59:24.961Z,100182.53
2023-04-03T11:02:01.751Z,100196.66
2023-04-03T11:04:32.534Z,100195.09
2023-04-03T11:07:27.229Z,100188.75
2023-04-03T11:10:01.899Z,100194.44
2023-04-03T11:12:39.658Z,100183.69
2023-04-03T11:15:07.268Z,100186.03
2023-04-03T11:17:42.487Z,100180.28
2023-04-03T11:20:35.678Z,100182.16
2023-04-03T11:23:23.386Z,100175.88
2023-04-03T11:25:54.421Z,100165.25
2023-04-03T11:28:21.114Z,100169.81
2023-04-03T11:31:12.891Z,100167.13
2023-04-03T11:34:07.142Z,100163.28
2023-04-03T11:36:44.586Z,100159.81
2023-04-03T11:39:20.874Z,100161.03
2023-04-03T11:41:48.678Z,100167.25
2023-04-03T11:44:30.566Z,100152.44
2023-04-03T11:46:59.279Z,100158.47
2023-04-03T11:49:54.198Z,100158.53
2023-04-03T11:52:43.810Z,100156.81
2023-04-03T11:55:21.524Z,100155.16
2023-04-03T11:58:31.532Z,100162.50
2023-04-03T12:01:02.997Z,100147.94
2023-04-03T12:03:29.642Z,100149.25
2023-04-03T12:06:05.528Z,100145.75
2023-04-03T12:08:41.144Z,100144.75
2023-04-03T12:11:13.933Z,100140.25
2023-04-03T12:13:49.744Z,100143.41
2023-04-03T12:16:26.143Z,100136.13
2023-04-03T12:18:52.780Z,100132.00
2023-04-03T12:21:25.477Z,100134.22
2023-04-03T12:24:10.334Z,100136.69
2023-04-03T12:26:52.265Z,100131.44
2023-04-03T12:29:21.924Z,100136.34
2023-04-03T12:32:14.896Z,100142.06
2023-04-03T12:34:53.420Z,100141.50
2023-04-03T12:37:32.144Z,100140.09
2023-04-03T12:40:11.958Z,100134.88
2023-04-03T12:42:52.373Z,100134.69
2023-04-03T12:45:24.805Z,100139.13
2023-04-03T12:47:54.750Z,100130.75
2023-04-03T12:50:34.956Z,100133.09
2023-04-03T12:53:13.165Z,100126.56
2023-04-03T12:55:40.127Z,100125.63
2023-04-03T12:58:29.488Z,100127.25
2023-04-03T13:01:04.820Z,100133.09
2023-04-03T13:03:34.770Z,100123.34
2023-04-03T13:06:03.539Z,100116.69
2023-04-03T13:08:30.764Z,100123.25
2023-04-03T13:10:57.312Z,100110.53
2023-04-03T13:13:24.347Z,100110.19
2023-04-03T13:15:51.315Z,100116.06
2023-04-03T13:18:30.015Z,100108.47
2023-04-03T13:21:07.395Z,100104.19
2023-04-03T13:23:37.726Z,100104.69
2023-04-03T13:26:05.762Z,100096.00
2023-04-03T13:28:34.077Z,100099.56
2023-04-03T13:31:06.567Z,100103.16
2023-04-03T13:33:36.336Z,100102.03
2023-04-03T13:36:18.978Z,100100.31
2023-04-03T13:38:45.650Z,100105.03
2023-04-03T13:41:36.316Z,100100.25
2023-04-03T13:44:22.986Z,100098.19
2023-04-03T13:46:59.798Z,100098.03
2023-04-03T13:49:29.715Z,100090.78
2023-04-03T13:52:06.428Z,100079.19
2023-04-03T13:54:40.009Z,100076.50
2023-04-03T13:57:16.947Z,100076.66
2023-04-03T13:59:46.696Z,100086.16
2023-04-03T14:02:13.280Z,100076.09
2023-04-03T14:04:46.034Z,100082.19
2023-04-03T14:07:13.952Z,100074.22
2023-04-03T14:09:41.178Z,100083.19
2023-04-03T14:12:24.245Z,100075.09
2023-04-03T14:14:57.307Z,100078.31
2023-04-03T14:17:25.937Z,100074.03
2023-04-03T14:19:54.118Z,100069.25
2023-04-03T14:22:27.337Z,100073.13
2023-04-03T14:24:54.322Z,100070.84
2023-04-03T14:27:24.688Z,100073.44
2023-04-03T14:29:53.472Z,100074.41
2023-04-03T14:32:22.697Z,100076.00
2023-04-03T14:34:50.909Z,100068.44
2023-04-03T14:37:21.345Z,100067.19
2023-04-03T14:39:48.520Z,100080.22
2023-04-03T14:42:20.370Z,100074.59
2023-04-03T14:44:47.169Z,100079.03
2023-04-03T14:47:30.002Z,100071.66
2023-04-03T14:50:00.610Z,100065.06
2023-04-03T14:52:34.373Z,100077.09
2023-04-03T14:55:02.449Z,100080.19
2023-04-03T14:57:30.326Z,100075.47
2023-04-03T14:59:57.141Z,100080.88
2023-04-03T15:02:26.312Z,100071.47
2023-04-03T15:04:54.016Z,100070.03
2023-04-03T15:07:21.577Z,100076.78
2023-04-03T15:09:48.425Z,100080.09
2023-04-03T15:14:51.760Z,100077.00
2023-04-03T15:17:24.387Z,100078.31
2023-04-03T15:19:51.124Z,100076.50
2023-04-03T15:22:19.938Z,100083.81
2023-04-03T15:24:47.078Z,100072.66
2023-04-03T15:27:14.860Z,100073.59
2023-04-03T15:29:43.910Z,100070.16
2023-04-03T15:32:11.008Z,100080.38
2023-04-03T15:34:38.671Z,100070.78
2023-04-03T15:37:05.667Z,100067.94
2023-04-03T15:39:32.605Z,100063.50
2023-04-03T15:41:59.518Z,100065.47
2023-04-03T15:44:26.322Z,100071.81
2023-04-03T15:46:53.112Z,100067.16
2023-04-03T15:49:22.703Z,100072.41
2023-04-03T15:51:49.454Z,100073.84
2023-04-03T15:54:16.823Z,100078.06
2023-04-03T15:56:43.680Z,100075.31
2023-04-03T15:59:10.458Z,100079.91
2023-04-03T16:01:39.168Z,100074.75
2023-04-03T16:04:09.034Z,100079.47
2023-04-03T16:06:36.238Z,100080.50
2023-04-03T16:09:02.992Z,100083.25
2023-04-03T16:11:29.938Z,100077.50
2023-04-03T16:13:57.479Z,100083.88
2023-04-03T16:16:25.840Z,100087.81
2023-04-03T16:18:52.481Z,100089.31
2023-04-03T16:21:19.127Z,100081.78
2023-04-03T16:23:46.230Z,100092.75
2023-04-03T16:26:13.536Z,100082.41
2023-04-03T16:28:40.482Z,100091.63
2023-04-03T16:31:08.470Z,100093.78
2023-04-03T16:33:35.446Z,100098.94
2023-04-03T16:36:02.351Z,100096.16
2023-04-03T16:38:29.004Z,100091.41
2023-04-03T16:40:55.673Z,100102.47
2023-04-03T16:43:22.295Z,100102.47
2023-04-03T16:45:48.902Z,100103.41
2023-04-03T16:48:15.737Z,100113.97
2023-04-03T16:50:42.457Z,100112.75
2023-04-03T16:53:09.102Z,100113.22
2023-04-03T16:55:36.466Z,100116.88
2023-04-03T16:58:03.151Z,100125.75
2023-04-03T17:00:33.520Z,100127.84
2023-04-03T17:03:00.523Z,100130.38
2023-04-03T17:05:27.230Z,100140.53
2023-04-03T17:07:53.865Z,100138.97
2023-04-03T17:10:20.583Z,100146.19
2023-04-03T17:12:47.271Z,100149.59
2023-04-03T17:15:14.085Z,100165.13
2023-04-03T17:17:40.950Z,100171.59
2023-04-03T17:20:08.369Z,100179.09
2023-04-03T17:22:35.094Z,100185.13
2023-04-03T17:25:01.796Z,100194.66
2023-04-03T17:27:28.626Z,100198.19
2023-04-03T17:29:55.271Z,100212.72
2023-04-03T17:32:21.971Z,100217.13
2023-04-03T17:34:48.811Z,100222.41
2023-04-03T17:37:15.548Z,100238.97
2023-04-03T17:39:42.153Z,100244.59
2023-04-03T17:42:08.901Z,100245.31
2023-04-03T17:44:35.553Z,100252.06
2023-04-03T17:47:02.314Z,100254.00
2023-04-03T17:49:29.032Z,100260.50
2023-04-03T17:51:55.693Z,100270.03
2023-04-03T17:54:22.336Z,100274.38
2023-04-03T17:56:48.975Z,100290.16
2023-04-03T17:59:16.765Z,100300.59
2023-04-03T18:01:45.186Z,100315.13
2023-04-03T18:04:12.156Z,100320.53
2023-04-03T18:06:43.641Z,100324.94
2023-04-03T18:09:19.919Z,100333.16
2023-04-03T18:11:48.536Z,100333.38
2023-04-03T18:14:26.738Z,100332.38
2023-04-03T18:16:53.419Z,100330.31
2023-04-03T18:19:23.329Z,100338.22
2023-04-03T18:21:51.935Z,100344.41
2023-04-03T18:24:20.837Z,100345.88
2023-04-03T18:26:51.803Z,100355.34
2023-04-03T18:29:20.436Z,100357.75
2023-04-03T18:31:51.663Z,100358.72
2023-04-03T18:34:18.304Z,100369.41
2023-04-03T18:36:44.971Z,100370.44
2023-04-03T18:39:11.648Z,100366.75
2023-04-03T18:41:38.493Z,100366.94
2023-04-03T18:44:08.409Z,100368.56
2023-04-03T18:46:35.174Z,100369.75
2023-04-03T18:49:02.563Z,100369.41
2023-04-03T18:51:29.563Z,100363.31
2023-04-03T18:53:56.206Z,100363.22
2023-04-03T18:56:22.854Z,100369.38
2023-04-03T18:58:49.538Z,100363.25
2023-04-03T19:01:16.715Z,100360.66
2023-04-03T19:03:43.902Z,100364.19
2023-04-03T19:06:10.789Z,100365.09
2023-04-03T19:08:37.776Z,100365.00
2023-04-03T19:11:04.633Z,100368.50
2023-04-03T19:13:31.426Z,100361.69
2023-04-03T19:15:58.089Z,100352.13
2023-04-03T19:18:26.276Z,100365.22
2023-04-03T19:20:55.846Z,100356.66
2023-04-03T19:23:23.845Z,100355.88
2023-04-03T19:25:59.283Z,100352.41
2023-04-03T19:28:25.944Z,100357.66
2023-04-03T19:30:52.655Z,100363.72
2023-04-03T19:33:22.374Z,100374.16
2023-04-03T19:35:49.063Z,100373.47
2023-04-03T19:38:15.722Z,100380.47
2023-04-03T19:40:43.428Z,100373.25
2023-04-03T19:43:14.262Z,100375.19
2023-04-03T19:45:41.822Z,100371.94
2023-04-03T19:48:08.651Z,100370.22
2023-04-03T19:50:35.640Z,100372.81
2023-04-03T19:53:02.472Z,100367.63
2023-04-03T19:55:29.369Z,100360.66
2023-04-03T19:57:56.107Z,100371.97
2023-04-03T20:00:22.760Z,100365.03
2023-04-03T20:02:49.411Z,100359.78
2023-04-03T20:05:16.149Z,100365.84
2023-04-03T20:07:42.763Z,100364.09
2023-04-03T20:10:10.030Z,100364.06
2023-04-03T20:12:36.649Z,100366.69
2023-04-03T20:15:03.701Z,100367.47
2023-04-03T20:17:30.641Z,100370.94
2023-04-03T20:19:57.346Z,100370.03
2023-04-03T20:22:24.041Z,100370.09
2023-04-03T20:24:50.628Z,100364.06
2023-04-03T20:27:17.261Z,100367.50
2023-04-03T20:29:44.021Z,100364.81
2023-04-03T20:32:10.680Z,100364.81
2023-04-03T20:34:37.988Z,100375.25
2023-04-03T20:37:04.678Z,100371.84
2023-04-03T20:39:31.690Z,100371.75
2023-04-03T20:41:59.927Z,100379.53
2023-04-03T20:44:26.544Z,100370.91
2023-04-03T20:46:54.061Z,100366.53
2023-04-03T20:49:22.142Z,100376.13
2023-04-03T20:51:49.012Z,100387.38
2023-04-03T20:54:15.649Z,100373.25
2023-04-03T20:56:42.327Z,100361.97
2023-04-03T20:59:09.032Z,100361.03
2023-04-03T21:01:35.800Z,100367.94
2023-04-03T21:04:12.549Z,100362.72
2023-04-03T21:07:16.648Z,100363.47
2023-04-03T21:10:20.582Z,100365.13
2023-04-03T21:13:24.583Z,100364.41
2023-04-03T21:15:51.083Z,100357.50
2023-04-03T21:18:48.437Z,100351.50
2023-04-03T21:21:33.634Z,100348.56
2023-04-03T21:24:01.595Z,100358.22
2023-04-03T21:26:28.429Z,100354.78
2023-04-03T21:28:55.346Z,100352.22
2023-04-03T21:31:22.675Z,100352.09
2023-04-03T21:33:50.235Z,100352.06
2023-04-03T21:36:16.889Z,100360.97
2023-04-03T21:38:43.481Z,100358.22
2023-04-03T21:41:10.177Z,100351.31
2023-04-03T21:43:36.792Z,100339.16
2023-04-03T21:46:03.427Z,100339.19
2023-04-03T21:48:30.193Z,100334.03
2023-04-03T21:51:06.368Z,100341.94
2023-04-03T21:53:33.131Z,100334.03
2023-04-03T21:56:00.236Z,100343.72
2023-04-03T21:58:33.309Z,100335.91
2023-04-03T22:01:14.165Z,100330.63
2023-04-03T22:03:42.539Z,100330.84
2023-04-03T22:06:10.544Z,100326.25
2023-04-03T22:08:37.725Z,100315.69
2023-04-03T22:11:06.222Z,100321.03
2023-04-03T22:13:33.319Z,100311.44
2023-04-03T22:16:00.342Z,100316.59
2023-04-03T22:18:27.345Z,100323.59
2023-04-03T22:20:54.967Z,100313.22
2023-04-03T22:23:22.398Z,100317.41
2023-04-03T22:26:06.025Z,100317.53
2023-04-03T22:28:34.905Z,100311.41
2023-04-03T22:31:02.339Z,100320.09
2023-04-03T22:33:29.152Z,100316.63
2023-04-03T22:35:55.795Z,100318.16
2023-04-03T22:38:22.503Z,100323.59
2023-04-03T22:40:56.690Z,100332.91
2023-04-03T22:43:23.429Z,100335.69
2023-04-03T22:45:50.232Z,100327.94
2023-04-03T22:48:17.558Z,100335.91
2023-04-03T22:50:44.562Z,100326.28
2023-04-03T22:53:11.253Z,100323.50
2023-04-03T22:55:37.913Z,100317.09
2023-04-03T22:58:05.160Z,100315.50
2023-04-03T23:00:32.462Z,100312.72
2023-04-03T23:02:59.614Z,100326.78
2023-04-03T23:05:26.335Z,100324.94
2023-04-03T23:07:52.979Z,100335.47
2023-04-03T23:10:20.597Z,100317.78
2023-04-03T23:12:47.260Z,100334.31
2023-04-03T23:15:13.940Z,100334.59
2023-04-03T23:17:40.832Z,100334.53
2023-04-03T23:20:07.868Z,100332.69
2023-04-03T23:22:34.555Z,100322.94
2023-04-03T23:25:01.156Z,100324.53
2023-04-03T23:27:27.827Z,100315.94
2023-04-03T23:29:54.467Z,100314.38
2023-04-03T23:32:21.065Z,100310.38
2023-04-03T23:34:47.703Z,100313.13
2023-04-03T23:37:14.430Z,100315.63
2023-04-03T23:39:41.082Z,100304.19
2023-04-03T23:42:07.851Z,100307.72
2023-04-03T23:44:34.694Z,100318.28
2023-04-03T23:47:01.360Z,100325.81
2023-04-03T23:49:28.028Z,100322.41
2023-04-03T23:51:54.882Z,100332.88
2023-04-03T23:54:21.517Z,100335.34
2023-04-03T23:56:48.501Z,100323.34
2023-04-03T23:59:15.304Z,100329.53
